sensor_id;sensor_type;location;lat;lon;timestamp;P1;durP1;ratioP1;P2;durP2;ratioP2
82176;SDS011;71758;48.714;9.584;2024-02-21T00:00:36;20.58;;;8.73;;
82176;SDS011;71758;48.714;9.584;2024-02-21T00:03:03;18.90;;;8.38;;
82176;SDS011;71758;48.714;9.584;2024-02-21T00:05:29;16.30;;;7.82;;
82176;SDS011;71758;48.714;9.584;2024-02-21T00:07:55;23.63;;;8.30;;
82176;SDS011;71758;48.714;9.584;2024-02-21T00:10:21;21.23;;;7.90;;
82176;SDS011;71758;48.714;9.584;2024-02-21T00:12:46;22.55;;;8.93;;
82176;SDS011;71758;48.714;9.584;2024-02-21T00:15:11;23.83;;;8.98;;
82176;SDS011;71758;48.714;9.584;2024-02-21T00:17:37;18.00;;;7.75;;
82176;SDS011;71758;48.714;9.584;2024-02-21T00:20:02;20.85;;;8.82;;
82176;SDS011;71758;48.714;9.584;2024-02-21T00:22:28;19.35;;;8.90;;
82176;SDS011;71758;48.714;9.584;2024-02-21T00:24:56;23.30;;;10.00;;
82176;SDS011;71758;48.714;9.584;2024-02-21T00:27:23;21.00;;;9.10;;
82176;SDS011;71758;48.714;9.584;2024-02-21T00:29:48;22.45;;;9.32;;
82176;SDS011;71758;48.714;9.584;2024-02-21T00:32:14;23.00;;;8.50;;
82176;SDS011;71758;48.714;9.584;2024-02-21T00:34:39;22.92;;;9.23;;
82176;SDS011;71758;48.714;9.584;2024-02-21T00:37:04;22.33;;;8.75;;
82176;SDS011;71758;48.714;9.584;2024-02-21T00:39:30;19.23;;;8.38;;
82176;SDS011;71758;48.714;9.584;2024-02-21T00:41:56;19.05;;;8.15;;
82176;SDS011;71758;48.714;9.584;2024-02-21T00:44:21;22.85;;;9.13;;
82176;SDS011;71758;48.714;9.584;2024-02-21T00:46:46;24.63;;;8.38;;
82176;SDS011;71758;48.714;9.584;2024-02-21T00:49:12;19.80;;;8.13;;
82176;SDS011;71758;48.714;9.584;2024-02-21T00:51:37;21.10;;;8.35;;
82176;SDS011;71758;48.714;9.584;2024-02-21T00:54:03;20.90;;;8.05;;
82176;SDS011;71758;48.714;9.584;2024-02-21T00:56:28;19.08;;;7.28;;
82176;SDS011;71758;48.714;9.584;2024-02-21T00:58:54;16.52;;;7.70;;
82176;SDS011;71758;48.714;9.584;2024-02-21T01:01:26;17.67;;;7.85;;
82176;SDS011;71758;48.714;9.584;2024-02-21T01:03:51;16.95;;;7.15;;
82176;SDS011;71758;48.714;9.584;2024-02-21T01:06:20;17.15;;;7.43;;
82176;SDS011;71758;48.714;9.584;2024-02-21T01:08:48;15.95;;;7.68;;
82176;SDS011;71758;48.714;9.584;2024-02-21T01:11:14;19.65;;;7.70;;
82176;SDS011;71758;48.714;9.584;2024-02-21T01:13:40;15.95;;;7.00;;
82176;SDS011;71758;48.714;9.584;2024-02-21T01:16:06;18.42;;;7.57;;
82176;SDS011;71758;48.714;9.584;2024-02-21T01:18:34;19.25;;;8.13;;
82176;SDS011;71758;48.714;9.584;2024-02-21T01:21:02;21.63;;;8.02;;
82176;SDS011;71758;48.714;9.584;2024-02-21T01:23:31;18.17;;;7.05;;
82176;SDS011;71758;48.714;9.584;2024-02-21T01:25:57;17.95;;;7.50;;
82176;SDS011;71758;48.714;9.584;2024-02-21T01:28:22;20.45;;;7.55;;
82176;SDS011;71758;48.714;9.584;2024-02-21T01:30:48;15.25;;;6.95;;
82176;SDS011;71758;48.714;9.584;2024-02-21T01:33:13;15.18;;;6.93;;
82176;SDS011;71758;48.714;9.584;2024-02-21T01:35:39;17.20;;;7.38;;
82176;SDS011;71758;48.714;9.584;2024-02-21T01:38:04;13.65;;;7.38;;
82176;SDS011;71758;48.714;9.584;2024-02-21T01:40:29;14.55;;;6.63;;
82176;SDS011;71758;48.714;9.584;2024-02-21T01:42:55;20.38;;;7.00;;
82176;SDS011;71758;48.714;9.584;2024-02-21T01:45:20;15.82;;;7.00;;
82176;SDS011;71758;48.714;9.584;2024-02-21T01:47:46;17.10;;;7.65;;
82176;SDS011;71758;48.714;9.584;2024-02-21T01:50:12;16.58;;;7.18;;
82176;SDS011;71758;48.714;9.584;2024-02-21T01:52:42;19.40;;;6.72;;
82176;SDS011;71758;48.714;9.584;2024-02-21T01:55:09;18.63;;;7.07;;
82176;SDS011;71758;48.714;9.584;2024-02-21T01:57:35;20.02;;;7.57;;
82176;SDS011;71758;48.714;9.584;2024-02-21T02:00:01;13.80;;;7.07;;
82176;SDS011;71758;48.714;9.584;2024-02-21T02:02:27;14.63;;;6.75;;
82176;SDS011;71758;48.714;9.584;2024-02-21T02:04:52;20.65;;;7.82;;
82176;SDS011;71758;48.714;9.584;2024-02-21T02:07:20;19.38;;;7.18;;
82176;SDS011;71758;48.714;9.584;2024-02-21T02:09:46;18.05;;;7.43;;
82176;SDS011;71758;48.714;9.584;2024-02-21T02:12:11;17.23;;;7.03;;
82176;SDS011;71758;48.714;9.584;2024-02-21T02:14:37;13.93;;;6.55;;
82176;SDS011;71758;48.714;9.584;2024-02-21T02:17:02;17.35;;;6.93;;
82176;SDS011;71758;48.714;9.584;2024-02-21T02:19:27;18.27;;;6.80;;
82176;SDS011;71758;48.714;9.584;2024-02-21T02:21:57;20.88;;;7.47;;
82176;SDS011;71758;48.714;9.584;2024-02-21T02:24:25;17.98;;;7.07;;
82176;SDS011;71758;48.714;9.584;2024-02-21T02:26:51;16.83;;;7.45;;
82176;SDS011;71758;48.714;9.584;2024-02-21T02:29:16;21.35;;;7.65;;
82176;SDS011;71758;48.714;9.584;2024-02-21T02:31:42;16.33;;;7.30;;
82176;SDS011;71758;48.714;9.584;2024-02-21T02:34:07;17.15;;;6.90;;
82176;SDS011;71758;48.714;9.584;2024-02-21T02:36:33;15.43;;;7.57;;
82176;SDS011;71758;48.714;9.584;2024-02-21T02:38:59;18.55;;;7.47;;
82176;SDS011;71758;48.714;9.584;2024-02-21T02:41:24;21.05;;;8.02;;
82176;SDS011;71758;48.714;9.584;2024-02-21T02:43:49;16.58;;;7.38;;
82176;SDS011;71758;48.714;9.584;2024-02-21T02:46:15;13.85;;;6.90;;
82176;SDS011;71758;48.714;9.584;2024-02-21T02:48:40;15.35;;;7.75;;
82176;SDS011;71758;48.714;9.584;2024-02-21T02:51:06;18.52;;;7.47;;
82176;SDS011;71758;48.714;9.584;2024-02-21T02:53:31;19.65;;;7.85;;
82176;SDS011;71758;48.714;9.584;2024-02-21T02:55:56;19.48;;;7.05;;
82176;SDS011;71758;48.714;9.584;2024-02-21T02:58:22;14.95;;;7.05;;
82176;SDS011;71758;48.714;9.584;2024-02-21T03:00:48;15.27;;;6.75;;
82176;SDS011;71758;48.714;9.584;2024-02-21T03:03:13;18.33;;;6.65;;
82176;SDS011;71758;48.714;9.584;2024-02-21T03:05:39;16.73;;;6.60;;
82176;SDS011;71758;48.714;9.584;2024-02-21T03:08:04;19.60;;;6.85;;
82176;SDS011;71758;48.714;9.584;2024-02-21T03:10:35;18.52;;;7.38;;
82176;SDS011;71758;48.714;9.584;2024-02-21T03:13:00;18.98;;;7.28;;
82176;SDS011;71758;48.714;9.584;2024-02-21T03:15:26;17.27;;;7.28;;
82176;SDS011;71758;48.714;9.584;2024-02-21T03:17:51;20.45;;;7.88;;
82176;SDS011;71758;48.714;9.584;2024-02-21T03:20:17;17.77;;;7.55;;
82176;SDS011;71758;48.714;9.584;2024-02-21T03:22:44;18.00;;;7.30;;
82176;SDS011;71758;48.714;9.584;2024-02-21T03:25:10;18.13;;;7.10;;
82176;SDS011;71758;48.714;9.584;2024-02-21T03:27:36;14.25;;;6.60;;
82176;SDS011;71758;48.714;9.584;2024-02-21T03:30:01;15.00;;;6.28;;
82176;SDS011;71758;48.714;9.584;2024-02-21T03:32:27;16.48;;;6.70;;
82176;SDS011;71758;48.714;9.584;2024-02-21T03:34:56;16.63;;;6.00;;
82176;SDS011;71758;48.714;9.584;2024-02-21T03:37:21;16.95;;;6.13;;
82176;SDS011;71758;48.714;9.584;2024-02-21T03:39:47;15.35;;;6.13;;
82176;SDS011;71758;48.714;9.584;2024-02-21T03:42:15;16.98;;;6.93;;
82176;SDS011;71758;48.714;9.584;2024-02-21T03:44:41;19.77;;;6.32;;
82176;SDS011;71758;48.714;9.584;2024-02-21T03:47:06;14.25;;;6.10;;
82176;SDS011;71758;48.714;9.584;2024-02-21T03:49:31;14.73;;;6.50;;
82176;SDS011;71758;48.714;9.584;2024-02-21T03:51:57;12.35;;;6.40;;
82176;SDS011;71758;48.714;9.584;2024-02-21T03:54:22;18.30;;;5.85;;
82176;SDS011;71758;48.714;9.584;2024-02-21T03:56:47;17.20;;;6.18;;
82176;SDS011;71758;48.714;9.584;2024-02-21T03:59:13;17.20;;;5.65;;
82176;SDS011;71758;48.714;9.584;2024-02-21T04:01:39;17.75;;;6.70;;
82176;SDS011;71758;48.714;9.584;2024-02-21T04:04:04;12.52;;;5.50;;
82176;SDS011;71758;48.714;9.584;2024-02-21T04:06:30;14.35;;;6.40;;
82176;SDS011;71758;48.714;9.584;2024-02-21T04:08:56;19.27;;;6.88;;
82176;SDS011;71758;48.714;9.584;2024-02-21T04:11:24;16.05;;;6.88;;
82176;SDS011;71758;48.714;9.584;2024-02-21T04:13:50;15.82;;;7.40;;
82176;SDS011;71758;48.714;9.584;2024-02-21T04:16:16;15.35;;;7.13;;
82176;SDS011;71758;48.714;9.584;2024-02-21T04:18:42;19.92;;;7.45;;
82176;SDS011;71758;48.714;9.584;2024-02-21T04:21:08;17.17;;;7.57;;
82176;SDS011;71758;48.714;9.584;2024-02-21T04:23:33;15.90;;;7.38;;
82176;SDS011;71758;48.714;9.584;2024-02-21T04:25:59;14.38;;;6.70;;
82176;SDS011;71758;48.714;9.584;2024-02-21T04:28:24;23.70;;;7.80;;
82176;SDS011;71758;48.714;9.584;2024-02-21T04:30:50;19.73;;;7.80;;
82176;SDS011;71758;48.714;9.584;2024-02-21T04:33:15;20.45;;;7.30;;
82176;SDS011;71758;48.714;9.584;2024-02-21T04:35:40;16.75;;;6.88;;
82176;SDS011;71758;48.714;9.584;2024-02-21T04:38:06;15.07;;;6.95;;
82176;SDS011;71758;48.714;9.584;2024-02-21T04:40:31;13.80;;;6.93;;
82176;SDS011;71758;48.714;9.584;2024-02-21T04:42:57;13.68;;;6.97;;
82176;SDS011;71758;48.714;9.584;2024-02-21T04:45:22;14.50;;;6.13;;
82176;SDS011;71758;48.714;9.584;2024-02-21T04:47:48;19.63;;;7.38;;
82176;SDS011;71758;48.714;9.584;2024-02-21T04:50:13;15.70;;;7.03;;
82176;SDS011;71758;48.714;9.584;2024-02-21T04:52:39;16.35;;;6.70;;
82176;SDS011;71758;48.714;9.584;2024-02-21T04:55:04;19.42;;;7.43;;
82176;SDS011;71758;48.714;9.584;2024-02-21T04:57:30;17.20;;;7.25;;
82176;SDS011;71758;48.714;9.584;2024-02-21T04:59:56;16.33;;;8.80;;
82176;SDS011;71758;48.714;9.584;2024-02-21T05:02:21;23.10;;;8.23;;
82176;SDS011;71758;48.714;9.584;2024-02-21T05:04:49;19.10;;;8.18;;
82176;SDS011;71758;48.714;9.584;2024-02-21T05:07:14;19.00;;;8.18;;
82176;SDS011;71758;48.714;9.584;2024-02-21T05:09:41;14.88;;;7.03;;
82176;SDS011;71758;48.714;9.584;2024-02-21T05:12:07;19.52;;;8.68;;
82176;SDS011;71758;48.714;9.584;2024-02-21T05:14:33;15.95;;;7.22;;
82176;SDS011;71758;48.714;9.584;2024-02-21T05:16:58;12.60;;;6.05;;
82176;SDS011;71758;48.714;9.584;2024-02-21T05:19:23;16.88;;;7.35;;
82176;SDS011;71758;48.714;9.584;2024-02-21T05:21:49;16.92;;;6.75;;
82176;SDS011;71758;48.714;9.584;2024-02-21T05:24:14;16.98;;;10.43;;
82176;SDS011;71758;48.714;9.584;2024-02-21T05:26:40;16.27;;;7.20;;
82176;SDS011;71758;48.714;9.584;2024-02-21T05:29:05;16.05;;;7.25;;
82176;SDS011;71758;48.714;9.584;2024-02-21T05:31:42;18.77;;;8.13;;
82176;SDS011;71758;48.714;9.584;2024-02-21T05:34:28;20.27;;;8.40;;
82176;SDS011;71758;48.714;9.584;2024-02-21T05:36:54;24.95;;;8.85;;
82176;SDS011;71758;48.714;9.584;2024-02-21T05:39:19;22.42;;;9.45;;
82176;SDS011;71758;48.714;9.584;2024-02-21T05:41:47;18.85;;;8.30;;
82176;SDS011;71758;48.714;9.584;2024-02-21T05:44:12;21.48;;;8.25;;
82176;SDS011;71758;48.714;9.584;2024-02-21T05:46:38;20.38;;;8.88;;
82176;SDS011;71758;48.714;9.584;2024-02-21T05:49:03;27.33;;;8.60;;
82176;SDS011;71758;48.714;9.584;2024-02-21T05:51:32;27.65;;;8.23;;
82176;SDS011;71758;48.714;9.584;2024-02-21T05:54:00;19.80;;;8.20;;
82176;SDS011;71758;48.714;9.584;2024-02-21T05:56:25;20.27;;;8.20;;
82176;SDS011;71758;48.714;9.584;2024-02-21T05:58:51;22.17;;;9.00;;
82176;SDS011;71758;48.714;9.584;2024-02-21T06:01:16;20.50;;;8.70;;
82176;SDS011;71758;48.714;9.584;2024-02-21T06:03:42;16.38;;;7.97;;
82176;SDS011;71758;48.714;9.584;2024-02-21T06:06:08;20.95;;;8.57;;
82176;SDS011;71758;48.714;9.584;2024-02-21T06:08:33;21.98;;;8.85;;
82176;SDS011;71758;48.714;9.584;2024-02-21T06:10:59;19.23;;;8.27;;
82176;SDS011;71758;48.714;9.584;2024-02-21T06:13:24;19.95;;;8.15;;
82176;SDS011;71758;48.714;9.584;2024-02-21T06:15:50;17.67;;;8.15;;
82176;SDS011;71758;48.714;9.584;2024-02-21T06:18:19;17.90;;;8.18;;
82176;SDS011;71758;48.714;9.584;2024-02-21T06:20:45;22.27;;;9.32;;
82176;SDS011;71758;48.714;9.584;2024-02-21T06:23:11;21.00;;;8.98;;
82176;SDS011;71758;48.714;9.584;2024-02-21T06:25:37;22.92;;;9.25;;
82176;SDS011;71758;48.714;9.584;2024-02-21T06:28:03;18.17;;;8.13;;
82176;SDS011;71758;48.714;9.584;2024-02-21T06:30:28;17.30;;;7.35;;
82176;SDS011;71758;48.714;9.584;2024-02-21T06:32:56;18.58;;;8.18;;
82176;SDS011;71758;48.714;9.584;2024-02-21T06:35:22;17.05;;;7.70;;
82176;SDS011;71758;48.714;9.584;2024-02-21T06:37:49;18.15;;;7.75;;
82176;SDS011;71758;48.714;9.584;2024-02-21T06:40:20;15.30;;;7.40;;
82176;SDS011;71758;48.714;9.584;2024-02-21T06:42:47;15.48;;;7.40;;
82176;SDS011;71758;48.714;9.584;2024-02-21T06:45:12;17.77;;;6.93;;
82176;SDS011;71758;48.714;9.584;2024-02-21T06:47:37;15.00;;;6.93;;
82176;SDS011;71758;48.714;9.584;2024-02-21T06:50:03;15.68;;;8.15;;
82176;SDS011;71758;48.714;9.584;2024-02-21T06:52:28;21.17;;;9.32;;
82176;SDS011;71758;48.714;9.584;2024-02-21T06:54:54;20.08;;;8.77;;
82176;SDS011;71758;48.714;9.584;2024-02-21T06:57:19;19.52;;;7.90;;
82176;SDS011;71758;48.714;9.584;2024-02-21T06:59:44;23.60;;;9.73;;
82176;SDS011;71758;48.714;9.584;2024-02-21T07:02:10;19.92;;;9.05;;
82176;SDS011;71758;48.714;9.584;2024-02-21T07:04:35;19.90;;;9.18;;
82176;SDS011;71758;48.714;9.584;2024-02-21T07:07:01;17.38;;;8.18;;
82176;SDS011;71758;48.714;9.584;2024-02-21T07:09:27;22.60;;;8.32;;
82176;SDS011;71758;48.714;9.584;2024-02-21T07:11:53;20.52;;;10.48;;
82176;SDS011;71758;48.714;9.584;2024-02-21T07:14:22;19.80;;;10.85;;
82176;SDS011;71758;48.714;9.584;2024-02-21T07:16:47;16.77;;;8.77;;
82176;SDS011;71758;48.714;9.584;2024-02-21T07:19:12;17.92;;;8.63;;
82176;SDS011;71758;48.714;9.584;2024-02-21T07:21:38;21.67;;;10.23;;
82176;SDS011;71758;48.714;9.584;2024-02-21T07:24:06;20.40;;;9.55;;
82176;SDS011;71758;48.714;9.584;2024-02-21T07:26:34;20.33;;;10.13;;
82176;SDS011;71758;48.714;9.584;2024-02-21T07:28:59;21.25;;;9.77;;
82176;SDS011;71758;48.714;9.584;2024-02-21T07:31:25;21.75;;;10.43;;
82176;SDS011;71758;48.714;9.584;2024-02-21T07:33:50;18.23;;;8.45;;
82176;SDS011;71758;48.714;9.584;2024-02-21T07:36:16;16.65;;;8.35;;
82176;SDS011;71758;48.714;9.584;2024-02-21T07:38:52;22.63;;;9.85;;
82176;SDS011;71758;48.714;9.584;2024-02-21T07:41:18;26.52;;;9.40;;
82176;SDS011;71758;48.714;9.584;2024-02-21T07:43:43;19.38;;;9.13;;
82176;SDS011;71758;48.714;9.584;2024-02-21T07:46:08;21.10;;;10.48;;
82176;SDS011;71758;48.714;9.584;2024-02-21T07:48:34;18.48;;;9.07;;
82176;SDS011;71758;48.714;9.584;2024-02-21T07:50:59;23.73;;;10.63;;
82176;SDS011;71758;48.714;9.584;2024-02-21T07:53:25;23.70;;;10.63;;
82176;SDS011;71758;48.714;9.584;2024-02-21T07:55:50;26.45;;;12.27;;
82176;SDS011;71758;48.714;9.584;2024-02-21T07:58:15;23.85;;;11.48;;
82176;SDS011;71758;48.714;9.584;2024-02-21T08:00:41;24.13;;;11.10;;
82176;SDS011;71758;48.714;9.584;2024-02-21T08:03:06;18.88;;;9.02;;
82176;SDS011;71758;48.714;9.584;2024-02-21T08:05:34;17.55;;;8.35;;
82176;SDS011;71758;48.714;9.584;2024-02-21T08:07:59;19.08;;;8.25;;
82176;SDS011;71758;48.714;9.584;2024-02-21T08:10:27;17.05;;;7.97;;
82176;SDS011;71758;48.714;9.584;2024-02-21T08:12:53;16.75;;;7.95;;
82176;SDS011;71758;48.714;9.584;2024-02-21T08:15:18;17.58;;;9.05;;
82176;SDS011;71758;48.714;9.584;2024-02-21T08:17:43;19.48;;;7.80;;
82176;SDS011;71758;48.714;9.584;2024-02-21T08:20:09;12.15;;;5.53;;
82176;SDS011;71758;48.714;9.584;2024-02-21T08:22:37;11.88;;;5.05;;
82176;SDS011;71758;48.714;9.584;2024-02-21T08:25:03;14.45;;;5.40;;
82176;SDS011;71758;48.714;9.584;2024-02-21T08:27:30;11.30;;;5.25;;
82176;SDS011;71758;48.714;9.584;2024-02-21T08:29:56;13.93;;;5.60;;
82176;SDS011;71758;48.714;9.584;2024-02-21T08:32:21;16.95;;;5.25;;
82176;SDS011;71758;48.714;9.584;2024-02-21T08:34:46;11.27;;;4.47;;
82176;SDS011;71758;48.714;9.584;2024-02-21T08:37:12;14.25;;;5.35;;
82176;SDS011;71758;48.714;9.584;2024-02-21T08:39:37;15.98;;;5.38;;
82176;SDS011;71758;48.714;9.584;2024-02-21T08:42:03;11.70;;;4.78;;
82176;SDS011;71758;48.714;9.584;2024-02-21T08:44:32;11.73;;;4.55;;
82176;SDS011;71758;48.714;9.584;2024-02-21T08:46:57;14.52;;;5.78;;
82176;SDS011;71758;48.714;9.584;2024-02-21T08:49:22;12.48;;;5.22;;
82176;SDS011;71758;48.714;9.584;2024-02-21T08:51:48;14.30;;;5.85;;
82176;SDS011;71758;48.714;9.584;2024-02-21T08:54:13;13.88;;;4.43;;
82176;SDS011;71758;48.714;9.584;2024-02-21T08:56:38;11.93;;;4.13;;
82176;SDS011;71758;48.714;9.584;2024-02-21T08:59:04;13.48;;;4.25;;
82176;SDS011;71758;48.714;9.584;2024-02-21T09:01:29;12.45;;;4.13;;
82176;SDS011;71758;48.714;9.584;2024-02-21T09:03:55;11.23;;;4.32;;
82176;SDS011;71758;48.714;9.584;2024-02-21T09:06:21;11.20;;;3.53;;
82176;SDS011;71758;48.714;9.584;2024-02-21T09:08:47;11.45;;;3.47;;
82176;SDS011;71758;48.714;9.584;2024-02-21T09:11:13;14.10;;;3.83;;
82176;SDS011;71758;48.714;9.584;2024-02-21T09:13:38;14.57;;;3.67;;
82176;SDS011;71758;48.714;9.584;2024-02-21T09:16:04;9.95;;;3.33;;
82176;SDS011;71758;48.714;9.584;2024-02-21T09:18:29;10.18;;;3.80;;
82176;SDS011;71758;48.714;9.584;2024-02-21T09:20:55;10.00;;;3.92;;
82176;SDS011;71758;48.714;9.584;2024-02-21T09:23:23;14.40;;;4.07;;
82176;SDS011;71758;48.714;9.584;2024-02-21T09:25:49;10.52;;;3.83;;
82176;SDS011;71758;48.714;9.584;2024-02-21T09:28:14;10.18;;;3.38;;
82176;SDS011;71758;48.714;9.584;2024-02-21T09:30:40;11.20;;;3.63;;
82176;SDS011;71758;48.714;9.584;2024-02-21T09:33:05;8.65;;;3.30;;
82176;SDS011;71758;48.714;9.584;2024-02-21T09:35:31;10.45;;;3.28;;
82176;SDS011;71758;48.714;9.584;2024-02-21T09:37:58;11.25;;;3.30;;
82176;SDS011;71758;48.714;9.584;2024-02-21T09:40:24;9.20;;;3.10;;
82176;SDS011;71758;48.714;9.584;2024-02-21T09:42:50;11.80;;;3.60;;
82176;SDS011;71758;48.714;9.584;2024-02-21T09:45:32;10.77;;;3.60;;
82176;SDS011;71758;48.714;9.584;2024-02-21T09:50:45;12.60;;;2.83;;
82176;SDS011;71758;48.714;9.584;2024-02-21T09:53:12;13.20;;;3.53;;
82176;SDS011;71758;48.714;9.584;2024-02-21T09:55:38;11.23;;;3.45;;
82176;SDS011;71758;48.714;9.584;2024-02-21T09:58:06;12.48;;;3.40;;
82176;SDS011;71758;48.714;9.584;2024-02-21T10:00:32;10.40;;;3.17;;
82176;SDS011;71758;48.714;9.584;2024-02-21T10:02:58;9.95;;;3.25;;
82176;SDS011;71758;48.714;9.584;2024-02-21T10:05:24;10.27;;;3.50;;
82176;SDS011;71758;48.714;9.584;2024-02-21T10:07:51;13.13;;;4.13;;
82176;SDS011;71758;48.714;9.584;2024-02-21T10:10:16;14.65;;;4.03;;
82176;SDS011;71758;48.714;9.584;2024-02-21T10:12:52;10.02;;;2.88;;
82176;SDS011;71758;48.714;9.584;2024-02-21T10:15:22;11.93;;;3.65;;
82176;SDS011;71758;48.714;9.584;2024-02-21T10:17:49;9.15;;;3.30;;
82176;SDS011;71758;48.714;9.584;2024-02-21T10:20:15;13.05;;;3.80;;
82176;SDS011;71758;48.714;9.584;2024-02-21T10:22:43;11.77;;;3.10;;
82176;SDS011;71758;48.714;9.584;2024-02-21T10:25:09;10.85;;;3.40;;
82176;SDS011;71758;48.714;9.584;2024-02-21T10:27:36;7.78;;;3.08;;
82176;SDS011;71758;48.714;9.584;2024-02-21T10:30:02;8.40;;;2.85;;
82176;SDS011;71758;48.714;9.584;2024-02-21T10:32:28;5.05;;;2.08;;
82176;SDS011;71758;48.714;9.584;2024-02-21T10:35:04;10.40;;;2.60;;
82176;SDS011;71758;48.714;9.584;2024-02-21T10:37:30;9.23;;;2.72;;
82176;SDS011;71758;48.714;9.584;2024-02-21T10:39:56;8.73;;;2.45;;
82176;SDS011;71758;48.714;9.584;2024-02-21T10:42:22;10.40;;;2.50;;
82176;SDS011;71758;48.714;9.584;2024-02-21T10:44:48;8.15;;;2.30;;
82176;SDS011;71758;48.714;9.584;2024-02-21T10:47:16;8.25;;;2.45;;
82176;SDS011;71758;48.714;9.584;2024-02-21T10:49:46;8.23;;;2.20;;
82176;SDS011;71758;48.714;9.584;2024-02-21T10:52:26;8.35;;;2.15;;
82176;SDS011;71758;48.714;9.584;2024-02-21T10:57:29;8.68;;;2.30;;
82176;SDS011;71758;48.714;9.584;2024-02-21T10:59:56;8.45;;;2.13;;
82176;SDS011;71758;48.714;9.584;2024-02-21T11:02:23;9.52;;;2.10;;
82176;SDS011;71758;48.714;9.584;2024-02-21T11:04:49;6.25;;;2.00;;
82176;SDS011;71758;48.714;9.584;2024-02-21T11:07:15;11.05;;;2.03;;
82176;SDS011;71758;48.714;9.584;2024-02-21T11:09:49;10.85;;;2.20;;
82176;SDS011;71758;48.714;9.584;2024-02-21T11:12:19;8.57;;;2.40;;
82176;SDS011;71758;48.714;9.584;2024-02-21T11:14:45;10.30;;;2.13;;
82176;SDS011;71758;48.714;9.584;2024-02-21T11:17:15;11.20;;;2.13;;
82176;SDS011;71758;48.714;9.584;2024-02-21T11:19:44;9.73;;;2.05;;
82176;SDS011;71758;48.714;9.584;2024-02-21T11:22:16;4.97;;;1.40;;
82176;SDS011;71758;48.714;9.584;2024-02-21T11:24:43;9.25;;;2.08;;
82176;SDS011;71758;48.714;9.584;2024-02-21T11:27:12;8.38;;;1.80;;
82176;SDS011;71758;48.714;9.584;2024-02-21T11:29:39;9.10;;;1.80;;
82176;SDS011;71758;48.714;9.584;2024-02-21T11:32:06;6.55;;;1.40;;
82176;SDS011;71758;48.714;9.584;2024-02-21T11:34:34;10.07;;;1.83;;
82176;SDS011;71758;48.714;9.584;2024-02-21T11:37:00;9.55;;;1.60;;
82176;SDS011;71758;48.714;9.584;2024-02-21T11:39:25;8.35;;;1.70;;
82176;SDS011;71758;48.714;9.584;2024-02-21T11:42:04;6.05;;;1.70;;
82176;SDS011;71758;48.714;9.584;2024-02-21T11:44:31;6.70;;;1.50;;
82176;SDS011;71758;48.714;9.584;2024-02-21T11:46:57;6.13;;;1.40;;
82176;SDS011;71758;48.714;9.584;2024-02-21T11:49:24;7.35;;;1.70;;
82176;SDS011;71758;48.714;9.584;2024-02-21T11:51:57;6.88;;;1.45;;
82176;SDS011;71758;48.714;9.584;2024-02-21T11:54:26;4.93;;;1.52;;
82176;SDS011;71758;48.714;9.584;2024-02-21T11:56:52;8.48;;;2.05;;
82176;SDS011;71758;48.714;9.584;2024-02-21T11:59:17;8.90;;;1.48;;
82176;SDS011;71758;48.714;9.584;2024-02-21T12:01:46;9.35;;;2.00;;
82176;SDS011;71758;48.714;9.584;2024-02-21T12:04:11;8.18;;;1.40;;
82176;SDS011;71758;48.714;9.584;2024-02-21T12:06:38;5.95;;;1.50;;
82176;SDS011;71758;48.714;9.584;2024-02-21T12:09:05;6.32;;;1.40;;
82176;SDS011;71758;48.714;9.584;2024-02-21T12:11:34;6.13;;;1.35;;
82176;SDS011;71758;48.714;9.584;2024-02-21T12:13:59;10.52;;;2.10;;
82176;SDS011;71758;48.714;9.584;2024-02-21T12:16:29;9.40;;;1.58;;
82176;SDS011;71758;48.714;9.584;2024-02-21T12:18:55;6.75;;;1.60;;
82176;SDS011;71758;48.714;9.584;2024-02-21T12:21:25;11.25;;;2.22;;
82176;SDS011;71758;48.714;9.584;2024-02-21T12:23:58;5.47;;;1.48;;
82176;SDS011;71758;48.714;9.584;2024-02-21T12:26:24;6.05;;;1.50;;
82176;SDS011;71758;48.714;9.584;2024-02-21T12:28:50;6.63;;;1.40;;
82176;SDS011;71758;48.714;9.584;2024-02-21T12:31:26;8.23;;;1.38;;
82176;SDS011;71758;48.714;9.584;2024-02-21T12:33:52;8.70;;;1.65;;
82176;SDS011;71758;48.714;9.584;2024-02-21T12:36:18;5.15;;;1.60;;
82176;SDS011;71758;48.714;9.584;2024-02-21T12:38:44;8.45;;;2.03;;
82176;SDS011;71758;48.714;9.584;2024-02-21T12:41:11;9.25;;;1.70;;
82176;SDS011;71758;48.714;9.584;2024-02-21T12:43:37;6.35;;;1.50;;
82176;SDS011;71758;48.714;9.584;2024-02-21T12:46:03;7.38;;;1.70;;
82176;SDS011;71758;48.714;9.584;2024-02-21T12:48:28;10.57;;;1.75;;
82176;SDS011;71758;48.714;9.584;2024-02-21T12:50:54;8.05;;;1.70;;
82176;SDS011;71758;48.714;9.584;2024-02-21T12:53:20;6.03;;;1.50;;
82176;SDS011;71758;48.714;9.584;2024-02-21T12:55:49;9.93;;;1.70;;
82176;SDS011;71758;48.714;9.584;2024-02-21T12:58:15;7.75;;;1.85;;
82176;SDS011;71758;48.714;9.584;2024-02-21T13:00:42;9.48;;;1.80;;
82176;SDS011;71758;48.714;9.584;2024-02-21T13:03:08;6.28;;;1.60;;
82176;SDS011;71758;48.714;9.584;2024-02-21T13:08:03;7.20;;;1.60;;
82176;SDS011;71758;48.714;9.584;2024-02-21T13:10:30;6.35;;;1.75;;
82176;SDS011;71758;48.714;9.584;2024-02-21T13:12:55;6.07;;;1.30;;
82176;SDS011;71758;48.714;9.584;2024-02-21T13:15:21;4.90;;;1.63;;
82176;SDS011;71758;48.714;9.584;2024-02-21T13:17:46;7.93;;;1.70;;
82176;SDS011;71758;48.714;9.584;2024-02-21T13:20:12;5.47;;;1.40;;
82176;SDS011;71758;48.714;9.584;2024-02-21T13:22:38;5.88;;;1.73;;
82176;SDS011;71758;48.714;9.584;2024-02-21T13:25:04;5.93;;;1.65;;
82176;SDS011;71758;48.714;9.584;2024-02-21T13:27:32;5.82;;;1.40;;
82176;SDS011;71758;48.714;9.584;2024-02-21T13:30:00;5.10;;;1.27;;
82176;SDS011;71758;48.714;9.584;2024-02-21T13:32:30;6.72;;;1.80;;
82176;SDS011;71758;48.714;9.584;2024-02-21T13:34:56;6.35;;;1.63;;
82176;SDS011;71758;48.714;9.584;2024-02-21T13:37:24;8.10;;;1.70;;
82176;SDS011;71758;48.714;9.584;2024-02-21T13:39:50;4.65;;;1.50;;
82176;SDS011;71758;48.714;9.584;2024-02-21T13:42:16;7.30;;;1.65;;
82176;SDS011;71758;48.714;9.584;2024-02-21T13:44:42;8.88;;;1.92;;
82176;SDS011;71758;48.714;9.584;2024-02-21T13:47:08;7.72;;;1.60;;
82176;SDS011;71758;48.714;9.584;2024-02-21T13:49:34;7.78;;;1.80;;
82176;SDS011;71758;48.714;9.584;2024-02-21T13:52:00;7.40;;;1.90;;
82176;SDS011;71758;48.714;9.584;2024-02-21T13:54:26;5.38;;;1.50;;
82176;SDS011;71758;48.714;9.584;2024-02-21T13:56:51;7.13;;;1.63;;
82176;SDS011;71758;48.714;9.584;2024-02-21T13:59:17;5.47;;;1.60;;
82176;SDS011;71758;48.714;9.584;2024-02-21T14:01:43;7.65;;;1.83;;
82176;SDS011;71758;48.714;9.584;2024-02-21T14:04:08;5.97;;;1.70;;
82176;SDS011;71758;48.714;9.584;2024-02-21T14:06:34;8.13;;;1.83;;
82176;SDS011;71758;48.714;9.584;2024-02-21T14:09:00;6.07;;;1.70;;
82176;SDS011;71758;48.714;9.584;2024-02-21T14:11:25;6.90;;;1.90;;
82176;SDS011;71758;48.714;9.584;2024-02-21T14:13:52;7.60;;;1.75;;
82176;SDS011;71758;48.714;9.584;2024-02-21T14:16:17;6.63;;;1.55;;
82176;SDS011;71758;48.714;9.584;2024-02-21T14:18:43;5.15;;;1.60;;
82176;SDS011;71758;48.714;9.584;2024-02-21T14:21:08;7.00;;;2.42;;
82176;SDS011;71758;48.714;9.584;2024-02-21T14:23:37;8.07;;;2.38;;
82176;SDS011;71758;48.714;9.584;2024-02-21T14:26:06;8.13;;;2.03;;
82176;SDS011;71758;48.714;9.584;2024-02-21T14:28:31;9.07;;;2.08;;
82176;SDS011;71758;48.714;9.584;2024-02-21T14:30:58;5.88;;;1.60;;
82176;SDS011;71758;48.714;9.584;2024-02-21T14:33:25;5.93;;;1.83;;
82176;SDS011;71758;48.714;9.584;2024-02-21T14:35:55;7.20;;;1.45;;
82176;SDS011;71758;48.714;9.584;2024-02-21T14:38:21;6.43;;;1.90;;
82176;SDS011;71758;48.714;9.584;2024-02-21T14:40:46;5.90;;;1.95;;